Time;durP1;ratioP1;P1;durP2;ratioP2;P2;SDS_P1;SDS_P2;PMS_P1;PMS_P2;Temp;Humidity;BMP_temperature;BMP_pressure;BME280_temperature;BME280_humidity;BME280_pressure;Samples;Min_cycle;Max_cycle;Signal;HPM_P1;HPM_P2
2023/02/09 00:00:00;;;;;;;;;;;;;;;3.75;100.00;101197.19;4913804;29;20355;-90
2023/02/09 00:02:52;;;;;;;;;;;;;;;3.74;100.00;101187.53;4942258;28;19919;-90
2023/02/09 00:08:30;;;;;;;;;;;;;;;3.69;100.00;101191.88;4857330;29;20128;-91
2023/02/09 00:10:56;;;;;;;;;;;;;;;3.70;100.00;101193.66;4928197;29;19946;-96
2023/02/09 03:28:46;;;;;;;;;;;;;;;5.70;100.00;101140.03;5333377;23;19930;-87
2023/02/09 03:46:50;;;;;;;;;;;;;;;6.02;100.00;101155.78;4714654;30;20126;-88
2023/02/09 03:49:26;;;;;;;;;;;;;;;6.04;100.00;101148.75;4754974;30;19922;-90
2023/02/09 03:52:04;;;;;;;;;;;;;;;6.08;100.00;101146.97;4861685;28;20366;-90
2023/02/09 03:54:34;;;;;;;;;;;;;;;6.13;100.00;101145.22;4978364;28;19922;-91
2023/02/09 03:57:06;;;;;;;;;;;;;;;6.15;100.00;101151.34;4969323;28;19926;-91
2023/02/09 04:03:17;;;;;;;;;;;;;;;;;;;;;
2023/02/09 04:09:40;;;;;;;;;;;;;;;;;;;;;
2023/02/09 04:12:45;;;;;;;;;;;;;;;;;;;;;
2023/02/09 04:15:36;;;;;;;;;;;;;;;;;;;;;
2023/02/09 04:23:54;;;;;;;;;;;;;;;6.40;100.00;101159.16;4825557;29;19921;-90
2023/02/09 04:32:37;;;;;;;;;;;;;;;6.44;100.00;101164.41;4886702;29;20015;-90
2023/02/09 04:35:51;;;;;;;;;;;;;;;;;;;;;
2023/02/09 08:46:27;;;;;;;;;;;;;;;6.33;100.00;101274.16;4990587;28;19944;-92
2023/02/09 08:48:52;;;;;;;;;;;;;;;6.32;100.00;101261.88;4975475;28;20384;-94
2023/02/09 08:51:18;;;;;;;;;;;;;;;6.34;100.00;101260.97;4993500;28;19926;-90
2023/02/09 08:54:01;;;;;;;;;;;;;;;6.35;100.00;101259.22;4992829;28;20365;-88
2023/02/09 08:56:27;;;;;;;;;;;;;;;6.36;100.00;101256.56;4993365;28;19924;-91
2023/02/09 08:58:55;;;;;;;;;;;;;;;6.38;100.00;101256.56;4991768;28;19921;-91
2023/02/09 09:01:20;;;;;;;;;;;;;;;6.40;100.00;101256.56;4992846;28;19937;-86
2023/02/09 09:03:48;;;;;;;;;;;;;;;6.40;100.00;101244.31;4991404;28;20144;-89
2023/02/09 09:06:13;;;;;;;;;;;;;;;6.42;100.00;101260.09;4975008;28;20369;-89
2023/02/09 09:08:39;;;;;;;;;;;;;;;6.43;100.00;101262.72;4993726;28;19918;-86
2023/02/09 09:11:11;;;;;;;;;;;;;;;6.44;100.00;101266.22;4996514;28;20288;-88
2023/02/09 09:13:39;;;;;;;;;;;;;;;6.46;100.00;101259.19;4977796;28;19918;-93
2023/02/09 09:16:05;;;;;;;;;;;;;;;6.47;100.00;101266.22;4996310;28;20281;-91
2023/02/09 09:18:30;;;;;;;;;;;;;;;6.47;100.00;101268.88;4996482;28;19929;-90
2023/02/09 09:20:59;;;;;;;;;;;;;;;6.49;100.00;101270.63;4995114;28;20008;-88
2023/02/09 09:23:29;;;;;;;;;;;;;;;6.50;100.00;101267.09;4996488;28;20020;-90
2023/02/09 09:25:58;;;;;;;;;;;;;;;6.51;100.00;101267.97;4996439;28;19929;-92
2023/02/09 09:28:24;;;;;;;;;;;;;;;6.51;100.00;101260.94;4977961;28;20012;-91
2023/02/09 09:30:49;;;;;;;;;;;;;;;6.54;100.00;101270.59;4979109;28;19980;-93
2023/02/09 09:33:17;;;;;;;;;;;;;;;6.53;100.00;101266.22;4979118;28;19917;-90
2023/02/09 09:35:42;;;;;;;;;;;;;;;6.55;100.00;101269.72;4978718;28;19921;-89
2023/02/09 09:38:07;;;;;;;;;;;;;;;6.54;100.00;101274.13;4996676;28;19922;-91
2023/02/09 09:40:39;;;;;;;;;;;;;;;6.58;100.00;101274.97;4996265;28;20398;-92
2023/02/09 09:43:07;;;;;;;;;;;;;;;6.59;100.00;101279.38;4977896;28;19929;-92
2023/02/09 09:45:34;;;;;;;;;;;;;;;6.62;100.00;101282.00;4995546;28;20475;-94
2023/02/09 09:47:59;;;;;;;;;;;;;;;6.61;100.00;101282.88;4998271;28;19970;-93
2023/02/09 09:50:35;;;;;;;;;;;;;;;6.63;100.00;101288.13;4998106;28;20365;-90
2023/02/09 09:53:02;;;;;;;;;;;;;;;6.64;100.00;101285.50;4996565;28;20316;-90
2023/02/09 09:55:29;;;;;;;;;;;;;;;6.64;100.00;101288.13;4996670;28;19976;-94
2023/02/09 09:57:55;;;;;;;;;;;;;;;6.65;100.00;101291.63;4994887;28;21805;-92
2023/02/09 10:00:38;;;;;;;;;;;;;;;6.65;100.00;101292.53;4996034;28;19918;-92
2023/02/09 10:03:11;;;;;;;;;;;;;;;6.66;100.00;101290.75;4995177;28;19918;-92
2023/02/09 10:05:38;;;;;;;;;;;;;;;5.53;100.00;101289.91;4995660;28;19925;-89
2023/02/09 10:08:06;;;;;;;;;;;;;;;4.88;100.00;101290.59;4995037;28;19924;-92
2023/02/09 10:10:37;;;;;;;;;;;;;;;4.65;100.00;101292.22;4995486;28;19925;-92
2023/02/09 10:13:06;;;;;;;;;;;;;;;4.49;100.00;101292.09;4977486;28;19941;-90
2023/02/09 10:15:33;;;;;;;;;;;;;;;4.37;100.00;101297.28;4995978;28;19925;-92
2023/02/09 10:17:59;;;;;;;;;;;;;;;4.30;100.00;101279.75;4995430;28;19972;-89
2023/02/09 10:20:39;;;;;;;;;;;;;;;4.18;100.00;101286.66;4974319;28;20330;-84
2023/02/09 10:23:04;;;;;;;;;;;;;;;4.10;100.00;101280.50;4978456;28;20254;-86
2023/02/09 10:25:47;;;;;;;;;;;;;;;4.04;100.00;101283.06;4994816;28;19925;-89
2023/02/09 10:28:23;;;;;;;;;;;;;;;3.97;100.00;101289.09;4994567;28;20365;-91
2023/02/09 10:30:53;;;;;;;;;;;;;;;3.91;100.00;101292.56;4995100;28;20001;-85
2023/02/09 10:33:18;;;;;;;;;;;;;;;3.90;100.00;101297.81;4995246;28;19926;-85
2023/02/09 10:35:55;;;;;;;;;;;;;;;3.80;100.00;101302.97;4977964;28;20372;-83
2023/02/09 10:38:23;;;;;;;;;;;;;;;3.77;100.00;101295.06;4977574;28;20000;-87
2023/02/09 10:40:48;;;;;;;;;;;;;;;3.73;100.00;101302.88;4995422;28;19926;-90
2023/02/09 10:43:16;;;;;;;;;;;;;;;3.67;100.00;101303.72;4975921;28;19971;-89
2023/02/09 10:45:43;;;;;;;;;;;;;;;3.68;100.00;101304.59;4994628;28;19922;-87
2023/02/09 10:48:09;;;;;;;;;;;;;;;3.64;100.00;101303.69;4994668;28;19922;-87
2023/02/09 10:50:46;;;;;;;;;;;;;;;3.66;100.00;101307.19;4996834;28;20458;-88
2023/02/09 10:53:23;;;;;;;;;;;;;;;3.59;100.00;101305.38;4993402;28;19922;-89
2023/02/09 10:55:48;;;;;;;;;;;;;;;3.58;100.00;101303.63;4994137;28;19933;-90
2023/02/09 10:58:20;;;;;;;;;;;;;;;3.55;100.00;101303.59;4993423;28;19918;-88
2023/02/09 11:01:04;;;;;;;;;;;;;;;3.56;100.00;101290.50;4994754;28;19949;-86
2023/02/09 11:03:29;;;;;;;;;;;;;;;3.52;100.00;101291.31;4994967;28;19975;-88
2023/02/09 11:06:03;;;;;;;;;;;;;;;3.48;100.00;101281.69;4995375;28;19958;-93
2023/02/09 11:08:36;;;;;;;;;;;;;;;3.52;100.00;101288.69;4994007;28;19937;-93
2023/02/09 11:11:04;;;;;;;;;;;;;;;3.45;100.00;101289.53;4994767;28;19960;-85
2023/02/09 11:13:31;;;;;;;;;;;;;;;3.43;100.00;101284.25;4992577;28;19957;-91
2023/02/09 11:16:07;;;;;;;;;;;;;;;3.42;100.00;101286.88;4976670;28;20293;-89
2023/02/09 11:18:33;;;;;;;;;;;;;;;3.43;100.00;101286.88;4993703;28;20024;-91
2023/02/09 11:21:09;;;;;;;;;;;;;;;3.38;100.00;101285.06;4994258;28;20373;-91
2023/02/09 11:23:38;;;;;;;;;;;;;;;3.35;100.00;101277.16;4976481;28;20415;-89
2023/02/09 11:26:12;;;;;;;;;;;;;;;3.36;100.00;101264.09;4994382;28;19928;-87
2023/02/09 11:28:51;;;;;;;;;;;;;;;3.33;100.00;101256.19;4992600;28;19913;-88
2023/02/09 11:31:32;;;;;;;;;;;;;;;3.35;100.00;101258.81;4991819;28;20293;-87
2023/02/09 11:34:15;;;;;;;;;;;;;;;3.31;100.00;101257.06;4993868;28;20497;-87
2023/02/09 11:36:47;;;;;;;;;;;;;;;3.32;100.00;101254.47;4993766;28;20309;-86
2023/02/09 11:39:15;;;;;;;;;;;;;;;3.29;100.00;101249.19;4993613;28;19922;-87
2023/02/09 11:44:37;;;;;;;;;;;;;;;3.27;100.00;101261.34;4992768;28;19944;-91
2023/02/09 11:47:05;;;;;;;;;;;;;;;3.19;100.00;101261.31;4993669;28;19922;-93
2023/02/09 11:49:43;;;;;;;;;;;;;;;3.20;100.00;101256.94;4991774;28;20009;-88
2023/02/09 11:52:12;;;;;;;;;;;;;;;3.21;100.00;101256.94;4993783;28;19929;-91
2023/02/09 11:54:38;;;;;;;;;;;;;;;3.20;100.00;101249.94;4993958;28;19918;-89
2023/02/09 11:57:10;;;;;;;;;;;;;;;3.19;100.00;101257.78;4976031;28;20012;-86
2023/02/09 11:59:37;;;;;;;;;;;;;;;3.13;100.00;101250.75;4991810;28;19928;-85
2023/02/09 12:02:21;;;;;;;;;;;;;;;3.14;100.00;101252.50;4993043;28;19973;-89
2023/02/09 12:04:52;;;;;;;;;;;;;;;3.14;100.00;101255.13;4993212;28;19976;-88
2023/02/09 12:07:36;;;;;;;;;;;;;;;3.16;100.00;101256.03;4993411;28;19918;-89
2023/02/09 12:10:20;;;;;;;;;;;;;;;3.12;100.00;101250.75;4993125;28;19964;-92
2023/02/09 12:12:50;;;;;;;;;;;;;;;3.11;100.00;101248.97;4991677;28;20311;-89
2023/02/09 12:15:17;;;;;;;;;;;;;;;3.41;100.00;101244.03;4992686;28;19960;-86
2023/02/09 12:17:57;;;;;;;;;;;;;;;4.14;100.00;101249.91;4992172;28;19917;-92
2023/02/09 12:20:55;;;;;;;;;;;;;;;4.58;100.00;101238.78;4993041;28;20020;-86
2023/02/09 12:23:40;;;;;;;;;;;;;;;4.84;100.00;101241.53;4992763;28;19925;-90
2023/02/09 12:26:11;;;;;;;;;;;;;;;5.02;100.00;101229.31;4993225;28;19925;-94
2023/02/09 12:28:43;;;;;;;;;;;;;;;5.17;100.00;101228.47;4991591;28;19925;-90
2023/02/09 12:31:13;;;;;;;;;;;;;;;5.27;100.00;101232.91;4992671;28;19965;-91
2023/02/09 12:33:39;;;;;;;;;;;;;;;5.36;100.00;101242.53;4975800;28;19929;-93
2023/02/09 12:36:07;;;;;;;;;;;;;;;5.45;100.00;101234.66;4993234;28;19918;-92
2023/02/09 12:38:50;;;;;;;;;;;;;;;5.54;100.00;101218.91;4992744;28;19928;-85
2023/02/09 12:41:25;;;;;;;;;;;;;;;5.60;100.00;101218.91;4992554;28;19929;-86
2023/02/09 12:44:04;;;;;;;;;;;;;;;5.67;100.00;101221.56;4991555;28;19918;-90
2023/02/09 12:46:29;;;;;;;;;;;;;;;5.72;100.00;101219.78;4974375;28;20300;-90
2023/02/09 12:49:02;;;;;;;;;;;;;;;5.75;100.00;101204.88;4973306;28;19918;-89
2023/02/09 12:51:56;;;;;;;;;;;;;;;5.80;100.00;101220.66;4955362;28;19926;-88
2023/02/09 12:54:25;;;;;;;;;;;;;;;5.87;100.00;101217.16;4944419;28;19919;-88
2023/02/09 12:56:50;;;;;;;;;;;;;;;5.90;100.00;101216.28;4973237;28;20343;-90
2023/02/09 12:59:17;;;;;;;;;;;;;;;5.93;100.00;101226.78;4972415;28;20013;-88
2023/02/09 13:02:00;;;;;;;;;;;;;;;5.97;100.00;101229.47;4956038;28;20017;-86
2023/02/09 13:04:26;;;;;;;;;;;;;;;6.00;100.00;101228.59;4973206;28;19914;-88
2023/02/09 13:06:54;;;;;;;;;;;;;;;6.04;100.00;101218.94;4955770;28;20435;-84
2023/02/09 13:09:31;;;;;;;;;;;;;;;6.07;100.00;101213.66;4974018;28;20060;-93
2023/02/09 13:12:17;;;;;;;;;;;;;;;6.07;100.00;101219.78;4974449;28;20312;-94
2023/02/09 13:14:45;;;;;;;;;;;;;;;6.11;100.00;101231.19;4971938;28;19964;-93
2023/02/09 13:17:30;;;;;;;;;;;;;;;6.14;100.00;101220.66;4973809;28;19919;-92
2023/02/09 13:19:56;;;;;;;;;;;;;;;6.18;100.00;101215.38;4974225;28;19918;-91
2023/02/09 13:22:28;;;;;;;;;;;;;;;6.20;100.00;101215.38;4973752;28;19922;-93
2023/02/09 13:25:07;;;;;;;;;;;;;;;6.22;100.00;101216.25;4973794;28;19925;-93
2023/02/09 13:27:41;;;;;;;;;;;;;;;6.25;100.00;101215.38;4970783;28;19926;-91
2023/02/09 13:30:12;;;;;;;;;;;;;;;6.27;100.00;101205.72;4973149;28;20012;-93
2023/02/09 13:32:50;;;;;;;;;;;;;;;6.29;100.00;101214.50;4972332;28;19956;-91
2023/02/09 13:35:22;;;;;;;;;;;;;;;6.31;100.00;101218.88;4955784;28;20293;-93
2023/02/09 13:37:50;;;;;;;;;;;;;;;6.32;100.00;101218.00;4971693;28;19922;-94
2023/02/09 13:40:16;;;;;;;;;;;;;;;6.34;100.00;101207.47;4972812;28;19988;-92
2023/02/09 13:42:53;;;;;;;;;;;;;;;6.35;100.00;101204.81;4971991;28;20440;-90
2023/02/09 13:45:18;;;;;;;;;;;;;;;6.38;100.00;101206.56;4979620;28;20293;-88
2023/02/09 13:47:44;;;;;;;;;;;;;;;6.37;100.00;101212.72;4992047;28;19922;-91
2023/02/09 13:50:14;;;;;;;;;;;;;;;6.40;100.00;101215.34;4992057;28;19918;-90
2023/02/09 13:52:39;;;;;;;;;;;;;;;6.43;100.00;101217.06;4991365;28;19926;-90
2023/02/09 13:55:09;;;;;;;;;;;;;;;6.45;100.00;101215.34;4993889;28;19973;-90
2023/02/09 13:57:35;;;;;;;;;;;;;;;6.46;100.00;101214.44;4994446;28;19928;-90
2023/02/09 14:00:18;;;;;;;;;;;;;;;6.48;100.00;101208.28;4995150;28;20012;-92
2023/02/09 14:02:46;;;;;;;;;;;;;;;6.49;100.00;101206.53;4995773;28;19964;-90
2023/02/09 14:05:19;;;;;;;;;;;;;;;6.51;100.00;101204.75;4994836;28;19922;-89
2023/02/09 14:07:44;;;;;;;;;;;;;;;6.52;100.00;101202.13;4995455;28;19918;-90
2023/02/09 14:10:12;;;;;;;;;;;;;;;6.53;100.00;101198.63;4995768;28;19980;-86
2023/02/09 14:12:50;;;;;;;;;;;;;;;6.54;100.00;101200.38;4993959;28;19922;-94
2023/02/09 14:18:02;;;;;;;;;;;;;;;6.60;100.00;101203.84;4995199;28;20009;-90
2023/02/09 14:20:27;;;;;;;;;;;;;;;6.58;100.00;101197.72;4995179;28;20383;-83
2023/02/09 14:22:54;;;;;;;;;;;;;;;6.59;100.00;101191.56;4995116;28;19922;-84
2023/02/09 14:25:23;;;;;;;;;;;;;;;6.61;100.00;101179.28;4995120;28;19918;-86
2023/02/09 14:27:48;;;;;;;;;;;;;;;6.62;100.00;101176.66;4993417;28;20444;-85
2023/02/09 14:30:14;;;;;;;;;;;;;;;6.64;100.00;101171.38;4977620;28;19972;-91
2023/02/09 14:32:41;;;;;;;;;;;;;;;6.62;100.00;101187.19;4995054;28;20009;-90
2023/02/09 14:35:08;;;;;;;;;;;;;;;5.52;100.00;101183.88;4977530;28;19972;-86
2023/02/09 14:37:35;;;;;;;;;;;;;;;4.87;100.00;101199.50;4994031;28;19918;-86
2023/02/09 14:40:06;;;;;;;;;;;;;;;4.64;100.00;101214.31;4994751;28;19973;-87
2023/02/09 14:42:38;;;;;;;;;;;;;;;4.50;100.00;101214.22;4993701;28;20008;-84
2023/02/09 14:45:12;;;;;;;;;;;;;;;4.35;100.00;101208.03;4993911;28;19922;-87
2023/02/09 14:47:39;;;;;;;;;;;;;;;4.30;100.00;101206.28;4993253;28;19918;-85
2023/02/09 14:50:25;;;;;;;;;;;;;;;4.14;100.00;101214.03;4994172;28;20284;-89
2023/02/09 14:53:01;;;;;;;;;;;;;;;4.05;100.00;101202.63;4994847;28;19917;-89
2023/02/09 14:55:27;;;;;;;;;;;;;;;3.98;100.00;101202.56;4993615;28;20012;-91
2023/02/09 14:57:52;;;;;;;;;;;;;;;3.93;100.00;101201.66;4993525;28;19932;-89
2023/02/09 15:00:20;;;;;;;;;;;;;;;3.86;100.00;101201.59;4994613;28;19922;-86
2023/02/09 15:02:46;;;;;;;;;;;;;;;3.84;100.00;101198.09;4976290;28;20359;-89
2023/02/09 15:05:11;;;;;;;;;;;;;;;3.79;100.00;101195.44;4993893;28;20008;-88
2023/02/09 15:07:39;;;;;;;;;;;;;;;3.72;100.00;101199.78;4993257;28;20388;-84
2023/02/09 15:10:05;;;;;;;;;;;;;;;3.70;100.00;101208.47;4976829;28;19965;-85
2023/02/09 15:12:31;;;;;;;;;;;;;;;3.67;100.00;101213.69;4993353;28;19925;-86
2023/02/09 15:14:58;;;;;;;;;;;;;;;3.63;100.00;101212.78;4992559;28;19926;-88
2023/02/09 15:17:26;;;;;;;;;;;;;;;3.62;100.00;101208.41;4973689;28;19936;-85
2023/02/09 15:19:52;;;;;;;;;;;;;;;3.59;100.00;101208.38;4991762;28;19974;-86
2023/02/09 15:22:17;;;;;;;;;;;;;;;3.54;100.00;101208.38;4993324;28;19968;-84
2023/02/09 15:24:49;;;;;;;;;;;;;;;3.52;100.00;101203.97;4975590;28;19925;-85
2023/02/09 15:27:31;;;;;;;;;;;;;;;3.48;100.00;101207.41;4990304;28;19929;-85
2023/02/09 15:29:57;;;;;;;;;;;;;;;3.48;100.00;101213.56;4992054;28;19914;-84
2023/02/09 15:32:23;;;;;;;;;;;;;;;3.44;100.00;101210.00;4973841;28;20381;-83
2023/02/09 15:34:51;;;;;;;;;;;;;;;3.44;100.00;101210.00;4991066;28;20345;-85
2023/02/09 15:37:16;;;;;;;;;;;;;;;3.39;100.00;101219.56;4992124;28;19967;-85
2023/02/09 15:39:41;;;;;;;;;;;;;;;3.41;100.00;101227.44;4992701;28;20506;-84
2023/02/09 15:48:01;;;;;;;;;;;;;;;3.36;100.00;101234.41;4991345;28;20017;-87
2023/02/09 15:50:26;;;;;;;;;;;;;;;3.31;100.00;101242.19;4974807;28;20016;-88
2023/02/09 15:52:53;;;;;;;;;;;;;;;3.30;100.00;101239.56;4990811;28;19925;-85
2023/02/09 15:55:20;;;;;;;;;;;;;;;3.25;100.00;101240.38;4990485;28;19953;-82
2023/02/09 15:57:47;;;;;;;;;;;;;;;3.25;100.00;101247.38;4973806;28;19922;-82
2023/02/09 16:00:14;;;;;;;;;;;;;;;3.23;100.00;101255.22;4992630;28;19964;-84
2023/02/09 16:02:39;;;;;;;;;;;;;;;3.21;100.00;101251.72;4991845;28;19929;-85
2023/02/09 16:05:05;;;;;;;;;;;;;;;3.22;100.00;101247.34;4974832;28;19917;-85
2023/02/09 16:07:30;;;;;;;;;;;;;;;3.20;100.00;101242.09;4990996;28;19926;-84
2023/02/09 16:09:55;;;;;;;;;;;;;;;3.18;100.00;101243.81;4990596;28;19918;-89
2023/02/09 16:12:23;;;;;;;;;;;;;;;3.17;100.00;101244.66;4973937;28;19932;-84
2023/02/09 16:14:48;;;;;;;;;;;;;;;3.15;100.00;101243.78;4990501;28;20004;-85
2023/02/09 16:17:13;;;;;;;;;;;;;;;3.15;100.00;101249.03;4992047;28;20016;-84
2023/02/09 16:19:38;;;;;;;;;;;;;;;3.14;100.00;101254.25;4991701;28;19925;-83
2023/02/09 16:22:05;;;;;;;;;;;;;;;3.13;100.00;101252.47;4992370;28;19925;-84
2023/02/09 16:24:36;;;;;;;;;;;;;;;3.09;100.00;101247.22;4991888;28;20269;-87
2023/02/09 16:27:06;;;;;;;;;;;;;;;3.12;100.00;101248.13;4989027;28;19921;-91
2023/02/09 16:29:31;;;;;;;;;;;;;;;3.08;100.00;101249.84;4990192;28;19924;-89
2023/02/09 16:31:57;;;;;;;;;;;;;;;3.06;100.00;101260.28;4991683;28;20034;-90
2023/02/09 16:34:22;;;;;;;;;;;;;;;3.16;100.00;101263.88;4971936;28;19929;-89
2023/02/09 16:36:47;;;;;;;;;;;;;;;3.89;100.00;101267.19;4990845;28;19929;-85
2023/02/09 16:39:17;;;;;;;;;;;;;;;4.37;100.00;101284.16;4990923;28;19925;-83
2023/02/09 16:41:45;;;;;;;;;;;;;;;4.65;100.00;101285.19;4991012;28;20016;-86
2023/02/09 16:44:21;;;;;;;;;;;;;;;4.85;100.00;101287.03;4987352;28;19968;-89
2023/02/09 16:46:48;;;;;;;;;;;;;;;5.00;100.00;101283.63;4990908;28;20012;-86
2023/02/09 16:49:33;;;;;;;;;;;;;;;5.13;100.00;101290.66;4991172;28;20377;-89
2023/02/09 16:52:25;;;;;;;;;;;;;;;5.25;100.00;101280.19;4959731;28;19930;-87
2023/02/09 16:54:56;;;;;;;;;;;;;;;5.35;100.00;101286.34;4968669;28;19929;-89
2023/02/09 16:57:22;;;;;;;;;;;;;;;5.43;100.00;101286.38;4991891;28;19922;-87
2023/02/09 16:59:50;;;;;;;;;;;;;;;5.50;100.00;101296.00;4990347;28;19928;-89
2023/02/09 17:02:34;;;;;;;;;;;;;;;5.55;100.00;101289.03;4985989;28;19936;-89
2023/02/09 17:05:00;;;;;;;;;;;;;;;5.60;100.00;101284.66;4989671;28;19922;-86
2023/02/09 17:07:34;;;;;;;;;;;;;;;5.67;100.00;101293.44;4989033;28;19926;-85
2023/02/09 17:10:00;;;;;;;;;;;;;;;5.72;100.00;101294.31;4991504;28;20432;-86
2023/02/09 17:12:26;;;;;;;;;;;;;;;5.75;100.00;101301.34;4991347;28;19929;-88
2023/02/09 17:14:54;;;;;;;;;;;;;;;5.79;100.00;101303.97;4987517;28;19945;-89
2023/02/09 17:17:20;;;;;;;;;;;;;;;5.83;100.00;101305.72;4988942;28;19961;-86
2023/02/09 17:19:49;;;;;;;;;;;;;;;5.86;100.00;101310.09;4987547;28;19932;-90
2023/02/09 17:22:15;;;;;;;;;;;;;;;5.90;100.00;101310.97;4986465;28;19926;-86
2023/02/09 17:24:40;;;;;;;;;;;;;;;5.93;100.00;101318.88;4991377;28;19965;-88
2023/02/09 17:27:05;;;;;;;;;;;;;;;5.96;100.00;101319.78;4972047;28;20017;-86
2023/02/09 17:29:32;;;;;;;;;;;;;;;5.99;100.00;101329.44;4973967;28;19973;-85
2023/02/09 17:31:59;;;;;;;;;;;;;;;6.01;100.00;101325.06;4995052;28;20352;-86
2023/02/09 17:34:27;;;;;;;;;;;;;;;6.04;100.00;101324.19;4993838;28;19925;-84
2023/02/09 17:36:52;;;;;;;;;;;;;;;6.08;100.00;101320.66;4995250;28;20440;-84
2023/02/09 17:39:18;;;;;;;;;;;;;;;6.09;100.00;101325.94;4977716;28;19930;-85
2023/02/09 17:41:45;;;;;;;;;;;;;;;6.10;100.00;101324.19;4976631;28;19921;-83
2023/02/09 17:44:14;;;;;;;;;;;;;;;6.15;100.00;101338.22;4993276;28;19926;-84
2023/02/09 17:46:40;;;;;;;;;;;;;;;6.15;100.00;101335.59;4993265;28;19926;-85
2023/02/09 17:49:05;;;;;;;;;;;;;;;6.16;100.00;101340.84;4977349;28;19929;-84
2023/02/09 17:51:33;;;;;;;;;;;;;;;6.20;100.00;101344.34;4994984;28;19922;-85
2023/02/09 17:53:58;;;;;;;;;;;;;;;6.20;100.00;101341.72;4991721;28;19976;-85
2023/02/09 17:56:23;;;;;;;;;;;;;;;6.22;100.00;101336.47;4990254;28;19977;-83
2023/02/09 17:58:49;;;;;;;;;;;;;;;6.25;100.00;101339.09;4974068;28;19926;-85
2023/02/09 18:01:22;;;;;;;;;;;;;;;6.25;100.00;101337.34;4995454;28;20415;-86
2023/02/09 18:03:47;;;;;;;;;;;;;;;6.28;100.00;101341.72;4989292;28;19918;-86
2023/02/09 18:06:14;;;;;;;;;;;;;;;6.29;100.00;101341.72;4990951;28;20438;-85
2023/02/09 18:08:39;;;;;;;;;;;;;;;6.31;100.00;101345.22;4991567;28;19948;-88
2023/02/09 18:11:10;;;;;;;;;;;;;;;6.32;100.00;101347.00;4974915;28;20386;-85
2023/02/09 18:13:35;;;;;;;;;;;;;;;6.34;100.00;101344.38;4991529;28;19922;-85
2023/02/09 18:16:00;;;;;;;;;;;;;;;6.36;100.00;101350.50;4994585;28;20382;-86
2023/02/09 18:18:25;;;;;;;;;;;;;;;6.35;100.00;101352.25;4977048;28;20001;-86
2023/02/09 18:20:51;;;;;;;;;;;;;;;6.35;100.00;101357.53;4994701;28;20507;-88
2023/02/09 18:23:16;;;;;;;;;;;;;;;6.38;100.00;101361.91;4976315;28;19922;-87
2023/02/09 18:25:41;;;;;;;;;;;;;;;6.41;100.00;101366.28;4977550;28;19935;-85
2023/02/09 18:28:07;;;;;;;;;;;;;;;6.42;100.00;101362.78;4992487;28;19929;-89
2023/02/09 18:30:34;;;;;;;;;;;;;;;6.43;100.00;101369.78;4993941;28;20324;-86
2023/02/09 18:33:02;;;;;;;;;;;;;;;6.45;100.00;101370.69;4978355;28;19925;-89
2023/02/09 18:35:32;;;;;;;;;;;;;;;6.44;100.00;101377.69;4994218;28;19921;-89
2023/02/09 18:37:58;;;;;;;;;;;;;;;6.47;100.00;101379.47;4992408;28;20361;-85
2023/02/09 18:40:23;;;;;;;;;;;;;;;6.47;100.00;101392.63;4992870;28;19926;-85
2023/02/09 18:42:48;;;;;;;;;;;;;;;6.49;100.00;101396.13;4973569;28;20071;-84
2023/02/09 18:45:15;;;;;;;;;;;;;;;6.50;100.00;101397.91;4993072;28;20349;-85
2023/02/09 18:47:42;;;;;;;;;;;;;;;6.50;100.00;101396.13;4993195;28;19928;-84
2023/02/09 18:50:07;;;;;;;;;;;;;;;6.48;100.00;101384.72;4994286;28;19922;-84
2023/02/09 18:52:33;;;;;;;;;;;;;;;6.52;100.00;101389.09;4993330;28;19944;-85
2023/02/09 18:54:59;;;;;;;;;;;;;;;6.54;100.00;101395.25;4993323;28;20368;-90
2023/02/09 18:57:24;;;;;;;;;;;;;;;6.55;100.00;101390.88;4994863;28;19961;-88
2023/02/09 18:59:50;;;;;;;;;;;;;;;6.55;100.00;101398.75;4972340;28;19922;-86
2023/02/09 19:02:15;;;;;;;;;;;;;;;6.57;100.00;101393.50;4993679;28;19930;-87
2023/02/09 19:04:42;;;;;;;;;;;;;;;6.57;100.00;101409.28;4976037;28;19925;-87
2023/02/09 19:07:08;;;;;;;;;;;;;;;6.57;100.00;101411.94;4994280;28;19922;-85
2023/02/09 19:09:34;;;;;;;;;;;;;;;6.57;100.00;101418.06;4993863;28;19928;-83
2023/02/09 19:12:00;;;;;;;;;;;;;;;6.57;100.00;101414.56;4990968;28;20369;-86
2023/02/09 19:14:37;;;;;;;;;;;;;;;5.51;100.00;101410.84;4973093;28;19933;-87
2023/02/09 19:17:06;;;;;;;;;;;;;;;4.77;100.00;101406.94;4992453;28;19917;-84
2023/02/09 19:19:31;;;;;;;;;;;;;;;4.53;100.00;101419.91;4993319;28;19981;-89
2023/02/09 19:21:59;;;;;;;;;;;;;;;4.36;100.00;101421.50;4992542;28;20376;-89
2023/02/09 19:24:24;;;;;;;;;;;;;;;4.29;100.00;101425.84;4992486;28;19930;-88
2023/02/09 19:26:49;;;;;;;;;;;;;;;4.21;100.00;101430.09;4993278;28;19983;-87
2023/02/09 19:29:15;;;;;;;;;;;;;;;4.09;100.00;101430.88;4992280;28;19922;-84
2023/02/09 19:31:40;;;;;;;;;;;;;;;4.00;100.00;101436.03;4993279;28;20365;-87
2023/02/09 19:34:05;;;;;;;;;;;;;;;3.92;100.00;101437.69;4993022;28;20341;-88
2023/02/09 19:36:31;;;;;;;;;;;;;;;3.86;100.00;101440.25;4993020;28;20292;-85
2023/02/09 19:38:57;;;;;;;;;;;;;;;3.87;100.00;101442.00;4974965;28;19926;-90
2023/02/09 19:41:24;;;;;;;;;;;;;;;3.80;100.00;101448.94;4975257;28;19928;-88
2023/02/09 19:43:53;;;;;;;;;;;;;;;3.74;100.00;101441.88;4972679;28;20369;-86
2023/02/09 19:46:18;;;;;;;;;;;;;;;3.74;100.00;101446.25;4992762;28;20016;-86
2023/02/09 19:48:43;;;;;;;;;;;;;;;3.65;100.00;101462.72;4975321;28;19925;-86
2023/02/09 19:51:12;;;;;;;;;;;;;;;3.62;100.00;101454.81;4992647;28;19918;-89
2023/02/09 19:53:37;;;;;;;;;;;;;;;3.60;100.00;101459.16;4990250;28;20020;-87
2023/02/09 19:56:02;;;;;;;;;;;;;;;3.56;100.00;101454.78;4992160;28;19997;-89
2023/02/09 19:58:28;;;;;;;;;;;;;;;3.55;100.00;101461.72;4992082;28;19925;-84
2023/02/09 20:00:54;;;;;;;;;;;;;;;3.50;100.00;101463.44;4992092;28;19925;-88
2023/02/09 20:03:20;;;;;;;;;;;;;;;3.45;100.00;101471.22;4991586;28;19926;-90
2023/02/09 20:05:45;;;;;;;;;;;;;;;3.44;100.00;101474.69;4971229;28;19968;-87
2023/02/09 20:08:14;;;;;;;;;;;;;;;3.38;100.00;101468.50;4991503;28;19932;-86
2023/02/09 20:10:40;;;;;;;;;;;;;;;3.37;100.00;101470.25;4991632;28;19925;-88
2023/02/09 20:13:05;;;;;;;;;;;;;;;3.37;100.00;101472.88;4990334;28;19976;-86
2023/02/09 20:15:31;;;;;;;;;;;;;;;3.37;100.00;101485.97;4990609;28;19921;-87
2023/02/09 20:17:56;;;;;;;;;;;;;;;3.35;100.00;101478.94;4992575;28;19918;-88
2023/02/09 20:20:22;;;;;;;;;;;;;;;3.34;100.00;101477.19;4991995;28;20427;-89
2023/02/09 20:22:49;;;;;;;;;;;;;;;3.30;100.00;101478.00;4974270;28;20296;-84
2023/02/09 20:25:17;;;;;;;;;;;;;;;3.25;100.00;101497.13;4992151;28;19968;-87
2023/02/09 20:27:43;;;;;;;;;;;;;;;3.26;100.00;101495.41;4974551;28;19922;-88
2023/02/09 20:30:09;;;;;;;;;;;;;;;3.25;100.00;101488.41;4991584;28;19932;-87
2023/02/09 20:32:35;;;;;;;;;;;;;;;3.22;100.00;101493.59;4974904;28;20020;-88
2023/02/09 20:35:00;;;;;;;;;;;;;;;3.22;100.00;101498.84;4975233;28;20013;-88
2023/02/09 20:37:27;;;;;;;;;;;;;;;3.19;100.00;101498.78;4992181;28;20359;-85
2023/02/09 20:39:55;;;;;;;;;;;;;;;3.16;100.00;101497.03;4974296;28;19933;-86
2023/02/09 20:47:55;;;;;;;;;;;;;;;3.09;100.00;101503.91;4991470;28;19932;-86
2023/02/09 20:50:20;;;;;;;;;;;;;;;3.07;100.00;101505.59;4991860;28;19925;-87
2023/02/09 20:52:46;;;;;;;;;;;;;;;3.05;100.00;101499.47;4992055;28;19929;-86
2023/02/09 20:55:11;;;;;;;;;;;;;;;3.02;100.00;101504.66;4975078;28;20352;-87
2023/02/09 20:57:36;;;;;;;;;;;;;;;3.03;100.00;101508.16;4990917;28;19953;-88
2023/02/09 21:00:07;;;;;;;;;;;;;;;3.00;100.00;101503.78;4991319;28;20665;-84
2023/02/09 21:02:32;;;;;;;;;;;;;;;3.01;100.00;101508.13;4990262;28;19926;-83
2023/02/09 21:04:58;;;;;;;;;;;;;;;3.66;100.00;101503.81;4995570;28;19941;-86
2023/02/09 21:07:24;;;;;;;;;;;;;;;4.21;100.00;101505.31;4996525;28;19926;-88
2023/02/09 21:09:49;;;;;;;;;;;;;;;4.50;100.00;101511.75;4978753;28;19964;-85
2023/02/09 21:12:14;;;;;;;;;;;;;;;4.70;100.00;101511.06;4996297;28;19914;-84